Suzuka, Japan
Current Conditions -  °F | °C
As of 3:30 PM on Sunday 26 Oct 2014 (Local Time) from RJGG Reporting Station
Scattered Clouds Scattered Clouds  
Wind Chill: 70°   Ceiling: Unl
Heat Index: 70°   Visibility: 6mi
Dew Point: 59°   Wind: 1mph
Humidity: 68%   Direction: NA
Pressure: 30.03"   Gusts: NA
Location:  34.88°N, 136.58°E
Report Text: RJGG 260630Z VRB01KT 9999 FEW020 SCT/// 21/15 Q1017 BECMG 16005KT
Loading
Personal Weather Stations






























Interactive Weather Map New forecast layout! Learn more

10-Day Weather Forecast

Advertisements
Track Severe Weather on mobile